createdAt,value
2022-12-03T00:00:32.536Z,82
2022-12-03T00:01:32.473Z,82
2022-12-03T00:02:32.597Z,81
2022-12-03T00:03:32.690Z,82
2022-12-03T00:04:32.529Z,82
2022-12-03T00:05:32.476Z,82
2022-12-03T00:06:34.628Z,81
2022-12-03T00:07:32.543Z,81
2022-12-03T00:08:36.586Z,81
2022-12-03T00:09:40.631Z,81
2022-12-03T00:10:44.605Z,81
2022-12-03T00:11:48.618Z,81
2022-12-03T00:12:52.620Z,80
2022-12-03T00:13:56.605Z,80
2022-12-03T00:15:00.635Z,81
2022-12-03T00:16:04.699Z,81
2022-12-03T00:17:08.669Z,81
2022-12-03T00:18:12.623Z,81
2022-12-03T00:19:16.595Z,81
2022-12-03T00:20:20.673Z,80
2022-12-03T00:21:24.971Z,80
2022-12-03T00:22:28.621Z,81
2022-12-03T00:23:31.473Z,81
2022-12-03T00:24:31.483Z,80
2022-12-03T00:25:31.573Z,80
2022-12-03T00:26:31.524Z,80
2022-12-03T00:27:31.515Z,81
2022-12-03T00:28:31.509Z,80
2022-12-03T00:29:31.505Z,80
2022-12-03T00:30:31.503Z,80
2022-12-03T00:31:31.540Z,80
2022-12-03T00:32:31.532Z,80
2022-12-03T00:33:31.500Z,80
2022-12-03T00:34:31.499Z,80
2022-12-03T00:35:31.504Z,80
2022-12-03T00:36:31.495Z,80
2022-12-03T00:37:31.548Z,80
2022-12-03T00:38:31.503Z,80
2022-12-03T00:39:31.469Z,80
2022-12-03T00:40:31.491Z,80
2022-12-03T00:41:31.486Z,80
2022-12-03T00:42:31.607Z,80
2022-12-03T00:43:31.477Z,80
2022-12-03T00:44:31.498Z,80
2022-12-03T00:45:31.510Z,80
2022-12-03T00:46:31.671Z,80
2022-12-03T00:47:31.463Z,80
2022-12-03T00:48:31.481Z,80
2022-12-03T00:49:31.494Z,80
2022-12-03T00:50:31.497Z,80
2022-12-03T00:51:31.478Z,80
2022-12-03T00:52:31.507Z,80
2022-12-03T00:53:31.502Z,80
2022-12-03T00:54:32.063Z,80
2022-12-03T00:55:31.472Z,80
2022-12-03T00:56:31.525Z,80
2022-12-03T00:57:31.513Z,80
2022-12-03T00:58:31.499Z,80
2022-12-03T00:59:31.444Z,80
2022-12-03T01:00:31.490Z,80
2022-12-03T01:01:31.531Z,80
2022-12-03T01:02:31.540Z,81
2022-12-03T01:03:31.477Z,81
2022-12-03T01:04:31.561Z,81
2022-12-03T01:05:31.551Z,80
2022-12-03T01:06:31.613Z,80
2022-12-03T01:07:31.578Z,80
2022-12-03T01:08:31.449Z,80
2022-12-03T01:09:31.517Z,80
2022-12-03T01:10:31.488Z,81
2022-12-03T01:11:31.500Z,81
2022-12-03T01:12:31.488Z,81
2022-12-03T01:13:31.507Z,81
2022-12-03T01:14:31.466Z,80
2022-12-03T01:15:31.494Z,80
2022-12-03T01:16:31.619Z,81
2022-12-03T01:17:31.507Z,81
2022-12-03T01:18:31.455Z,81
2022-12-03T01:19:31.465Z,81
2022-12-03T01:20:31.502Z,81
2022-12-03T01:21:31.514Z,81
2022-12-03T01:22:31.493Z,81
2022-12-03T01:23:31.480Z,81
2022-12-03T01:24:31.559Z,81
2022-12-03T01:25:31.501Z,81
2022-12-03T01:26:31.497Z,81
2022-12-03T01:27:31.494Z,81
2022-12-03T01:28:31.512Z,81
2022-12-03T01:29:31.488Z,81
2022-12-03T01:30:31.464Z,81
2022-12-03T01:31:31.610Z,81
2022-12-03T01:32:31.517Z,81
2022-12-03T01:33:31.474Z,81
2022-12-03T01:34:31.478Z,81
2022-12-03T01:35:31.503Z,81
2022-12-03T01:36:31.483Z,81
2022-12-03T01:37:31.474Z,81
2022-12-03T01:38:31.445Z,81
2022-12-03T01:39:31.492Z,81
2022-12-03T01:40:31.659Z,81
2022-12-03T01:41:31.692Z,81
2022-12-03T01:42:31.594Z,81
2022-12-03T01:43:32.053Z,81
2022-12-03T01:44:31.635Z,81
2022-12-03T01:45:31.622Z,81
2022-12-03T01:46:31.680Z,81
2022-12-03T01:47:31.605Z,81
2022-12-03T01:48:31.630Z,80
2022-12-03T01:49:31.521Z,80
2022-12-03T01:50:31.467Z,81
2022-12-03T01:51:31.506Z,80
2022-12-03T01:52:31.518Z,80
2022-12-03T01:53:31.502Z,80
2022-12-03T01:54:31.455Z,80
2022-12-03T01:55:31.467Z,81
2022-12-03T01:56:31.494Z,81
2022-12-03T01:57:31.476Z,81
2022-12-03T01:58:31.458Z,81
2022-12-03T01:59:31.484Z,81
2022-12-03T02:00:31.493Z,81
2022-12-03T02:01:31.587Z,81
2022-12-03T02:02:31.470Z,81
2022-12-03T02:03:31.547Z,81
2022-12-03T02:04:31.499Z,81
2022-12-03T02:05:31.508Z,81
2022-12-03T02:06:31.449Z,81
2022-12-03T02:07:31.576Z,81
2022-12-03T02:08:31.486Z,81
2022-12-03T02:09:31.524Z,81
2022-12-03T02:10:31.484Z,81
2022-12-03T02:11:31.470Z,81
2022-12-03T02:12:31.491Z,81
2022-12-03T02:13:31.497Z,81
2022-12-03T02:14:31.471Z,81
2022-12-03T02:15:31.442Z,81
2022-12-03T02:16:31.555Z,81
2022-12-03T02:17:31.490Z,81
2022-12-03T02:18:31.505Z,81
2022-12-03T02:19:31.472Z,80
2022-12-03T02:20:31.499Z,81
2022-12-03T02:21:31.568Z,81
2022-12-03T02:22:31.522Z,81
2022-12-03T02:23:31.477Z,81
2022-12-03T02:24:31.490Z,81
2022-12-03T02:25:31.577Z,80
2022-12-03T02:26:31.482Z,80
2022-12-03T02:27:31.458Z,81
2022-12-03T02:28:31.508Z,81
2022-12-03T02:29:31.506Z,81
2022-12-03T02:30:31.514Z,81
2022-12-03T02:31:31.589Z,81
2022-12-03T02:32:31.496Z,82
2022-12-03T02:33:31.469Z,81
2022-12-03T02:34:31.502Z,82
2022-12-03T02:35:31.454Z,82
2022-12-03T02:36:31.486Z,81
2022-12-03T02:37:31.485Z,81
2022-12-03T02:38:31.587Z,81
2022-12-03T02:39:31.506Z,81
2022-12-03T02:40:31.582Z,81
2022-12-03T02:41:31.468Z,81
2022-12-03T02:42:31.584Z,81
2022-12-03T02:43:31.507Z,82
2022-12-03T02:44:31.462Z,82
2022-12-03T02:45:31.495Z,82
2022-12-03T02:46:31.532Z,82
2022-12-03T02:47:31.462Z,82
2022-12-03T02:48:31.491Z,82
2022-12-03T02:49:31.498Z,82
2022-12-03T02:50:31.502Z,82
2022-12-03T02:51:31.457Z,82
2022-12-03T02:52:31.472Z,82
2022-12-03T02:53:31.465Z,82
2022-12-03T02:54:31.491Z,82
2022-12-03T02:55:36.495Z,82
2022-12-03T02:56:31.511Z,82
2022-12-03T02:57:31.459Z,82
2022-12-03T02:58:31.518Z,82
2022-12-03T02:59:31.459Z,83
2022-12-03T03:00:31.512Z,83
2022-12-03T03:01:31.533Z,82
2022-12-03T03:02:31.593Z,82
2022-12-03T03:03:31.436Z,82
2022-12-03T03:04:31.581Z,82
2022-12-03T03:05:31.492Z,82
2022-12-03T03:06:31.497Z,82
2022-12-03T03:07:31.524Z,82
2022-12-03T03:08:31.473Z,82
2022-12-03T03:09:31.553Z,82
2022-12-03T03:10:31.600Z,82
2022-12-03T03:11:31.661Z,83
2022-12-03T03:12:36.118Z,83
2022-12-03T03:13:31.648Z,83
2022-12-03T03:14:31.643Z,83
2022-12-03T03:15:31.640Z,83
2022-12-03T03:16:31.647Z,83
2022-12-03T03:17:31.488Z,83
2022-12-03T03:18:31.511Z,83
2022-12-03T03:19:31.594Z,83
2022-12-03T03:20:31.619Z,83
2022-12-03T03:21:31.572Z,83
2022-12-03T03:22:31.557Z,83
2022-12-03T03:23:31.540Z,83
2022-12-03T03:24:31.518Z,83
2022-12-03T03:25:31.507Z,83
2022-12-03T03:26:31.650Z,83
2022-12-03T03:27:31.486Z,83
2022-12-03T03:28:31.666Z,83
2022-12-03T03:29:31.488Z,83
2022-12-03T03:30:31.583Z,83
2022-12-03T03:31:31.563Z,83
2022-12-03T03:32:31.641Z,83
2022-12-03T03:33:31.463Z,83
2022-12-03T03:34:31.489Z,83
2022-12-03T03:35:31.469Z,83
2022-12-03T03:36:31.512Z,83
2022-12-03T03:37:31.468Z,84
2022-12-03T03:38:31.482Z,84
2022-12-03T03:39:31.461Z,84
2022-12-03T03:40:31.583Z,84
2022-12-03T03:41:31.491Z,83
2022-12-03T03:42:31.513Z,83
2022-12-03T03:43:31.594Z,84
2022-12-03T03:44:31.467Z,84
2022-12-03T03:45:31.585Z,84
2022-12-03T03:46:31.602Z,83
2022-12-03T03:47:31.509Z,83
2022-12-03T03:48:31.533Z,83
2022-12-03T03:49:31.440Z,83
2022-12-03T03:50:31.490Z,84
2022-12-03T03:51:31.496Z,84
2022-12-03T03:52:31.490Z,84
2022-12-03T03:53:31.439Z,84
2022-12-03T03:54:31.461Z,84
2022-12-03T03:55:31.452Z,84
2022-12-03T03:56:31.478Z,84
2022-12-03T03:57:31.481Z,84
2022-12-03T03:58:31.470Z,84
2022-12-03T03:59:31.480Z,85
2022-12-03T04:00:31.486Z,85
2022-12-03T04:01:31.614Z,85
2022-12-03T04:02:31.496Z,85
2022-12-03T04:03:31.469Z,85
2022-12-03T04:04:31.558Z,85
2022-12-03T04:05:31.457Z,85
2022-12-03T04:06:31.479Z,85
2022-12-03T04:07:31.585Z,86
2022-12-03T04:08:31.509Z,86
2022-12-03T04:09:31.481Z,85
2022-12-03T04:10:31.479Z,85
2022-12-03T04:11:31.479Z,86
2022-12-03T04:12:31.465Z,86
2022-12-03T04:13:31.475Z,86
2022-12-03T04:14:31.483Z,86
2022-12-03T04:15:31.600Z,86
2022-12-03T04:16:31.519Z,85
2022-12-03T04:17:31.486Z,85
2022-12-03T04:18:31.459Z,86
2022-12-03T04:19:31.470Z,86
2022-12-03T04:20:31.438Z,86
2022-12-03T04:21:31.505Z,86
2022-12-03T04:22:31.474Z,85
2022-12-03T04:23:31.493Z,85
2022-12-03T04:24:31.562Z,85
2022-12-03T04:25:31.503Z,86
2022-12-03T04:26:31.517Z,85
2022-12-03T04:27:31.523Z,86
2022-12-03T04:28:31.462Z,85
2022-12-03T04:29:31.486Z,86
2022-12-03T04:30:31.514Z,85
2022-12-03T04:31:31.480Z,85
2022-12-03T04:32:31.461Z,85
2022-12-03T04:33:31.493Z,85
2022-12-03T04:34:31.467Z,85
2022-12-03T04:35:31.574Z,85
2022-12-03T04:36:31.449Z,85
2022-12-03T04:37:31.489Z,85
2022-12-03T04:38:31.600Z,84
2022-12-03T04:39:31.462Z,84
2022-12-03T04:40:31.462Z,84
2022-12-03T04:41:31.469Z,85
2022-12-03T04:42:31.472Z,85
2022-12-03T04:43:31.465Z,85
2022-12-03T04:44:31.455Z,84
2022-12-03T04:45:31.560Z,85
2022-12-03T04:46:31.558Z,85
2022-12-03T04:47:34.292Z,85
2022-12-03T04:48:31.454Z,85
2022-12-03T04:49:31.477Z,85
2022-12-03T04:50:31.517Z,85
2022-12-03T04:51:31.482Z,85
2022-12-03T04:52:31.456Z,85
2022-12-03T04:53:31.458Z,85
2022-12-03T04:54:31.447Z,85
2022-12-03T04:55:31.494Z,85
2022-12-03T04:56:31.440Z,85
2022-12-03T04:57:31.520Z,84
2022-12-03T04:58:31.478Z,85
2022-12-03T04:59:31.480Z,84
2022-12-03T05:00:31.431Z,84
2022-12-03T05:01:31.571Z,85
2022-12-03T05:02:31.518Z,85
2022-12-03T05:03:31.510Z,85
2022-12-03T05:04:31.436Z,85
2022-12-03T05:05:31.473Z,84
2022-12-03T05:06:31.447Z,84
2022-12-03T05:07:31.558Z,84
2022-12-03T05:08:31.485Z,84
2022-12-03T05:09:31.541Z,84
2022-12-03T05:10:31.451Z,84
2022-12-03T05:11:31.494Z,84
2022-12-03T05:12:31.528Z,84
2022-12-03T05:13:31.494Z,84
2022-12-03T05:14:31.425Z,83
2022-12-03T05:15:31.558Z,83
2022-12-03T05:16:31.484Z,84
2022-12-03T05:17:31.452Z,84
2022-12-03T05:18:31.457Z,84
2022-12-03T05:19:31.482Z,83
2022-12-03T05:20:31.476Z,83
2022-12-03T05:21:31.471Z,83
2022-12-03T05:22:31.460Z,83
2022-12-03T05:23:31.470Z,83
2022-12-03T05:24:31.490Z,83
2022-12-03T05:25:31.483Z,83
2022-12-03T05:26:31.453Z,83
2022-12-03T05:27:31.486Z,83
2022-12-03T05:28:31.571Z,83
2022-12-03T05:29:31.472Z,83
2022-12-03T05:30:31.605Z,83
2022-12-03T05:31:31.689Z,83
2022-12-03T05:32:31.473Z,83
2022-12-03T05:33:31.481Z,83
2022-12-03T05:34:31.427Z,83
2022-12-03T05:35:31.478Z,83
2022-12-03T05:36:31.456Z,83
2022-12-03T05:37:31.453Z,83
2022-12-03T05:38:31.445Z,83
2022-12-03T05:39:31.446Z,83
2022-12-03T05:40:31.453Z,82
2022-12-03T05:41:31.453Z,83
2022-12-03T05:42:31.451Z,83
2022-12-03T05:43:31.507Z,83
2022-12-03T05:44:31.467Z,83
2022-12-03T05:45:31.451Z,83
2022-12-03T05:46:31.612Z,83
2022-12-03T05:47:31.470Z,83
2022-12-03T05:48:31.444Z,83
2022-12-03T05:49:31.584Z,83
2022-12-03T05:50:31.460Z,82
2022-12-03T05:51:31.485Z,82
2022-12-03T05:52:31.439Z,82
2022-12-03T05:53:31.492Z,82
2022-12-03T05:54:31.444Z,82
2022-12-03T05:55:31.467Z,82
2022-12-03T05:56:31.463Z,82
2022-12-03T05:57:31.462Z,82
2022-12-03T05:58:31.431Z,82
2022-12-03T05:59:31.445Z,82
2022-12-03T06:00:31.459Z,82
2022-12-03T06:01:31.474Z,82
2022-12-03T06:02:31.580Z,82
2022-12-03T06:03:31.559Z,82
2022-12-03T06:04:31.456Z,82
2022-12-03T06:05:31.464Z,81
2022-12-03T06:06:31.465Z,82
2022-12-03T06:07:31.512Z,82
2022-12-03T06:08:31.475Z,82
2022-12-03T06:09:31.468Z,82
2022-12-03T06:10:31.477Z,82
2022-12-03T06:11:31.451Z,81
2022-12-03T06:12:31.494Z,81
2022-12-03T06:13:31.440Z,81
2022-12-03T06:14:31.468Z,82
2022-12-03T06:15:31.547Z,82
2022-12-03T06:16:31.574Z,82
2022-12-03T06:17:31.447Z,82
2022-12-03T06:18:31.523Z,82
2022-12-03T06:19:31.469Z,82
2022-12-03T06:20:31.494Z,82
2022-12-03T06:21:31.460Z,82
2022-12-03T06:22:31.551Z,82
2022-12-03T06:23:31.451Z,82
2022-12-03T06:24:31.452Z,82
2022-12-03T06:25:31.465Z,82
2022-12-03T06:26:31.489Z,82
2022-12-03T06:27:31.470Z,82
2022-12-03T06:28:31.484Z,82
2022-12-03T06:29:31.436Z,82
2022-12-03T06:30:31.475Z,82
2022-12-03T06:31:31.535Z,82
2022-12-03T06:32:31.489Z,82
2022-12-03T06:33:31.430Z,82
2022-12-03T06:34:31.463Z,82
2022-12-03T06:35:31.446Z,82
2022-12-03T06:36:31.460Z,82
2022-12-03T06:37:31.413Z,82
2022-12-03T06:38:31.475Z,82
2022-12-03T06:39:31.506Z,82
2022-12-03T06:40:31.462Z,82
2022-12-03T06:41:31.498Z,82
2022-12-03T06:42:31.519Z,82
2022-12-03T06:43:31.445Z,82
2022-12-03T06:44:31.473Z,82
2022-12-03T06:45:31.454Z,82
2022-12-03T06:46:31.595Z,82
2022-12-03T06:47:31.481Z,82
2022-12-03T06:48:31.519Z,82
2022-12-03T06:49:31.465Z,82
2022-12-03T06:50:31.443Z,82
2022-12-03T06:51:31.465Z,82
2022-12-03T06:52:31.508Z,82
2022-12-03T06:53:31.416Z,82
2022-12-03T06:54:31.596Z,81
2022-12-03T06:55:31.447Z,81
2022-12-03T06:56:36.861Z,81
2022-12-03T06:57:31.457Z,81
2022-12-03T06:58:31.440Z,81
2022-12-03T06:59:31.452Z,81
2022-12-03T07:00:31.476Z,81
2022-12-03T07:01:31.458Z,81
2022-12-03T07:02:31.527Z,81
2022-12-03T07:03:31.441Z,81
2022-12-03T07:04:31.466Z,81
2022-12-03T07:05:31.407Z,81
2022-12-03T07:06:31.451Z,81
2022-12-03T07:07:31.537Z,80
2022-12-03T07:08:31.448Z,80
2022-12-03T07:09:31.454Z,80
2022-12-03T07:10:31.419Z,80
2022-12-03T07:11:31.475Z,80
2022-12-03T07:12:31.463Z,80
2022-12-03T07:13:31.441Z,80
2022-12-03T07:14:31.436Z,80
2022-12-03T07:15:31.476Z,80
2022-12-03T07:16:31.564Z,79
2022-12-03T07:17:31.582Z,79
2022-12-03T07:18:31.474Z,79
2022-12-03T07:19:33.042Z,79
2022-12-03T07:20:31.463Z,79
2022-12-03T07:21:31.467Z,80
2022-12-03T07:22:31.422Z,80
2022-12-03T07:23:31.446Z,80
2022-12-03T07:24:31.433Z,80
2022-12-03T07:25:31.454Z,80
2022-12-03T07:26:31.411Z,79
2022-12-03T07:27:31.481Z,79
2022-12-03T07:28:31.462Z,79
2022-12-03T07:29:31.480Z,79
2022-12-03T07:30:31.417Z,80
2022-12-03T07:31:31.527Z,80
2022-12-03T07:32:31.434Z,79
2022-12-03T07:33:31.494Z,79
2022-12-03T07:34:31.444Z,79
2022-12-03T07:35:31.430Z,79
2022-12-03T07:36:31.444Z,79
2022-12-03T07:37:31.472Z,79
2022-12-03T07:38:31.432Z,79
2022-12-03T07:39:31.449Z,79
2022-12-03T07:40:31.481Z,79
2022-12-03T07:41:31.467Z,79
2022-12-03T07:42:31.432Z,79
2022-12-03T07:43:31.481Z,79
2022-12-03T07:44:31.630Z,79
2022-12-03T07:45:31.471Z,79
2022-12-03T07:46:31.492Z,79
2022-12-03T07:47:31.463Z,80
2022-12-03T07:48:31.477Z,79
2022-12-03T07:49:31.432Z,79
2022-12-03T07:50:31.423Z,80
2022-12-03T07:51:32.450Z,79
2022-12-03T07:52:31.498Z,79
2022-12-03T07:53:31.458Z,79
2022-12-03T07:54:31.412Z,79
2022-12-03T07:55:31.439Z,79
2022-12-03T07:56:31.455Z,80
2022-12-03T07:57:31.460Z,79
2022-12-03T07:58:31.420Z,79
2022-12-03T07:59:31.459Z,79
2022-12-03T08:00:31.473Z,79
2022-12-03T08:01:31.542Z,79
2022-12-03T08:02:31.517Z,79
2022-12-03T08:03:31.434Z,79
2022-12-03T08:04:31.433Z,79
2022-12-03T08:05:31.515Z,78
2022-12-03T08:06:31.445Z,79
2022-12-03T08:07:31.499Z,79
2022-12-03T08:08:31.412Z,79
2022-12-03T08:09:31.425Z,78
2022-12-03T08:10:31.433Z,78
2022-12-03T08:11:31.496Z,78
2022-12-03T08:12:31.455Z,78
2022-12-03T08:13:31.488Z,77
2022-12-03T08:14:31.433Z,77
2022-12-03T08:15:37.241Z,77
2022-12-03T08:16:31.483Z,77
2022-12-03T08:17:31.449Z,77
2022-12-03T08:18:31.469Z,78
2022-12-03T08:19:31.457Z,78
2022-12-03T08:20:31.473Z,78
2022-12-03T08:21:31.502Z,77
2022-12-03T08:22:31.443Z,77
2022-12-03T08:23:31.429Z,77
2022-12-03T08:24:31.447Z,78
2022-12-03T08:25:31.467Z,78
2022-12-03T08:26:31.481Z,77
2022-12-03T08:27:31.395Z,77
2022-12-03T08:28:31.454Z,77
2022-12-03T08:29:31.449Z,77
2022-12-03T08:30:31.468Z,77
2022-12-03T08:31:33.785Z,77
2022-12-03T08:32:31.459Z,77
2022-12-03T08:33:31.448Z,77
2022-12-03T08:34:31.476Z,77
2022-12-03T08:35:31.398Z,78
2022-12-03T08:36:31.482Z,78
2022-12-03T08:37:31.452Z,77
2022-12-03T08:38:31.431Z,77
2022-12-03T08:39:31.436Z,77
2022-12-03T08:40:31.492Z,77
2022-12-03T08:41:31.444Z,77
2022-12-03T08:42:31.498Z,77
2022-12-03T08:43:31.437Z,77
2022-12-03T08:44:31.467Z,77
2022-12-03T08:45:31.483Z,77
2022-12-03T08:46:31.466Z,77
2022-12-03T08:47:31.427Z,77
2022-12-03T08:48:31.451Z,77
2022-12-03T08:49:31.531Z,77
2022-12-03T08:50:31.561Z,78
2022-12-03T08:51:31.444Z,78
2022-12-03T08:52:31.532Z,78
2022-12-03T08:53:31.416Z,78
2022-12-03T08:54:31.458Z,78
2022-12-03T08:55:31.402Z,78
2022-12-03T08:56:31.430Z,78
2022-12-03T08:57:31.449Z,78
2022-12-03T08:58:31.441Z,78
2022-12-03T08:59:31.424Z,78
2022-12-03T09:00:31.559Z,78
2022-12-03T09:01:31.631Z,78
2022-12-03T09:02:31.585Z,78
2022-12-03T09:03:31.441Z,78
2022-12-03T09:04:31.547Z,78
2022-12-03T09:05:31.437Z,78
2022-12-03T09:06:31.463Z,78
2022-12-03T09:07:31.469Z,78
2022-12-03T09:08:31.566Z,78
2022-12-03T09:09:31.405Z,77
2022-12-03T09:10:32.453Z,77
2022-12-03T09:11:31.525Z,77
2022-12-03T09:12:31.454Z,77
2022-12-03T09:13:31.441Z,77
2022-12-03T09:14:31.485Z,78
2022-12-03T09:15:31.450Z,78
2022-12-03T09:16:31.467Z,77
2022-12-03T09:17:31.466Z,77
2022-12-03T09:18:31.490Z,77
2022-12-03T09:19:31.455Z,78
2022-12-03T09:20:31.426Z,78
2022-12-03T09:21:31.452Z,78
2022-12-03T09:22:31.512Z,77
2022-12-03T09:23:31.433Z,77
2022-12-03T09:24:31.413Z,77
2022-12-03T09:25:31.473Z,77
2022-12-03T09:26:31.512Z,77
2022-12-03T09:27:31.458Z,77
2022-12-03T09:28:31.434Z,77
2022-12-03T09:29:31.464Z,77
2022-12-03T09:30:31.540Z,77
2022-12-03T09:31:31.495Z,77
2022-12-03T09:32:31.557Z,77
2022-12-03T09:33:31.428Z,77
2022-12-03T09:34:31.458Z,77
2022-12-03T09:35:31.468Z,77
2022-12-03T09:36:31.435Z,77
2022-12-03T09:37:31.461Z,77
2022-12-03T09:38:31.480Z,77
2022-12-03T09:39:31.446Z,77
2022-12-03T09:40:31.435Z,77
2022-12-03T09:41:31.452Z,77
2022-12-03T09:42:31.439Z,77
2022-12-03T09:43:49.359Z,77
2022-12-03T09:44:31.507Z,77
2022-12-03T09:45:31.671Z,77
2022-12-03T09:46:31.504Z,77
2022-12-03T09:47:31.442Z,77
2022-12-03T09:48:31.420Z,77
2022-12-03T09:49:31.499Z,77
2022-12-03T09:50:31.434Z,77
2022-12-03T09:51:31.456Z,77
2022-12-03T09:52:31.403Z,77
2022-12-03T09:53:31.474Z,77
2022-12-03T09:54:31.459Z,77
2022-12-03T09:55:31.460Z,77
2022-12-03T09:56:31.427Z,77
2022-12-03T09:57:31.457Z,77
2022-12-03T09:58:34.709Z,77
2022-12-03T09:59:31.452Z,77
2022-12-03T10:00:31.421Z,77
2022-12-03T10:01:31.486Z,77
2022-12-03T10:02:31.478Z,77
2022-12-03T10:03:31.447Z,77
2022-12-03T10:04:31.516Z,77
2022-12-03T10:05:31.448Z,77
2022-12-03T10:06:31.430Z,77
2022-12-03T10:07:31.469Z,77
2022-12-03T10:08:32.519Z,77
2022-12-03T10:09:31.444Z,77
2022-12-03T10:10:31.428Z,77
2022-12-03T10:11:31.452Z,77
2022-12-03T10:12:31.440Z,76
2022-12-03T10:13:31.404Z,77
2022-12-03T10:14:31.448Z,77
2022-12-03T10:15:31.478Z,77
2022-12-03T10:16:31.528Z,77
2022-12-03T10:17:31.415Z,77
2022-12-03T10:18:32.732Z,77
2022-12-03T10:19:31.438Z,77
2022-12-03T10:20:31.442Z,77
2022-12-03T10:21:31.413Z,77
2022-12-03T10:22:31.434Z,77
2022-12-03T10:23:31.431Z,77
2022-12-03T10:24:31.451Z,77
2022-12-03T10:25:31.433Z,77
2022-12-03T10:26:31.538Z,77
2022-12-03T10:27:31.435Z,77
2022-12-03T10:28:31.504Z,77
2022-12-03T10:29:33.709Z,77
2022-12-03T10:30:31.460Z,77
2022-12-03T10:31:31.494Z,77
2022-12-03T10:32:31.455Z,77
2022-12-03T10:33:31.445Z,77
2022-12-03T10:34:31.429Z,77
2022-12-03T10:35:31.475Z,77
2022-12-03T10:36:31.464Z,77
2022-12-03T10:37:31.424Z,77
2022-12-03T10:38:31.418Z,78
2022-12-03T10:39:31.428Z,78
2022-12-03T10:40:31.463Z,77
2022-12-03T10:41:31.411Z,77
2022-12-03T10:42:31.421Z,77
2022-12-03T10:43:31.503Z,77
2022-12-03T10:44:31.445Z,77
2022-12-03T10:45:31.426Z,77
2022-12-03T10:46:31.535Z,77
2022-12-03T10:47:31.589Z,77
2022-12-03T10:48:31.451Z,77
2022-12-03T10:49:31.424Z,77
2022-12-03T10:50:31.437Z,77
2022-12-03T10:51:31.520Z,77
2022-12-03T10:52:31.465Z,77
2022-12-03T10:53:31.413Z,77
2022-12-03T10:54:31.439Z,76
2022-12-03T10:55:31.436Z,77
2022-12-03T10:56:31.440Z,77
2022-12-03T10:57:31.388Z,77
2022-12-03T10:58:31.410Z,77
2022-12-03T10:59:31.414Z,77
2022-12-03T11:00:31.429Z,77
2022-12-03T11:01:31.599Z,77
2022-12-03T11:02:31.691Z,76
2022-12-03T11:03:31.480Z,76
2022-12-03T11:04:31.442Z,76
2022-12-03T11:05:31.439Z,77
2022-12-03T11:06:31.432Z,76
2022-12-03T11:07:31.589Z,76
2022-12-03T11:08:31.471Z,76
2022-12-03T11:09:31.447Z,77
2022-12-03T11:10:31.457Z,76
2022-12-03T11:11:31.483Z,76
2022-12-03T11:12:31.414Z,76
2022-12-03T11:13:31.425Z,76
2022-12-03T11:14:31.443Z,76
2022-12-03T11:15:31.434Z,76
2022-12-03T11:16:31.662Z,76
2022-12-03T11:17:31.471Z,76
2022-12-03T11:18:31.433Z,77
2022-12-03T11:19:31.394Z,76
2022-12-03T11:20:31.436Z,77
2022-12-03T11:21:31.420Z,77
2022-12-03T11:22:31.491Z,76
2022-12-03T11:23:31.400Z,76
2022-12-03T11:24:31.487Z,77
2022-12-03T11:25:31.413Z,77
2022-12-03T11:26:31.441Z,77
2022-12-03T11:27:31.402Z,77
2022-12-03T11:28:31.435Z,77
2022-12-03T11:29:31.435Z,77
2022-12-03T11:30:31.447Z,77
2022-12-03T11:31:31.481Z,77
2022-12-03T11:32:32.159Z,77
2022-12-03T11:33:31.454Z,77
2022-12-03T11:34:31.383Z,77
2022-12-03T11:35:31.442Z,77
2022-12-03T11:36:54.109Z,77
2022-12-03T11:37:31.507Z,77
2022-12-03T11:38:31.455Z,77
2022-12-03T11:39:31.434Z,77
2022-12-03T11:40:37.713Z,77
2022-12-03T11:41:31.453Z,77
2022-12-03T11:42:31.433Z,77
2022-12-03T11:43:31.413Z,77
2022-12-03T11:44:31.439Z,77
2022-12-03T11:45:31.518Z,77
2022-12-03T11:46:31.402Z,77
2022-12-03T11:47:31.438Z,77
2022-12-03T11:48:31.773Z,77
2022-12-03T11:49:31.472Z,77
2022-12-03T11:50:37.677Z,77
2022-12-03T11:51:31.441Z,77
2022-12-03T11:52:31.425Z,77
2022-12-03T11:53:31.498Z,77
2022-12-03T11:54:31.405Z,77
2022-12-03T11:55:31.431Z,77
2022-12-03T11:56:31.432Z,77
2022-12-03T11:57:31.467Z,77
2022-12-03T11:58:31.404Z,77
2022-12-03T11:59:31.420Z,77
2022-12-03T12:00:31.423Z,77
2022-12-03T12:01:35.473Z,77
2022-12-03T12:02:31.441Z,77
2022-12-03T12:03:33.313Z,77
2022-12-03T12:04:31.476Z,76
2022-12-03T12:05:31.430Z,77
2022-12-03T12:06:31.486Z,77
2022-12-03T12:07:31.529Z,77
2022-12-03T12:08:31.396Z,77
2022-12-03T12:09:31.456Z,77
2022-12-03T12:10:31.417Z,76
2022-12-03T12:11:31.492Z,76
2022-12-03T12:12:31.409Z,76
2022-12-03T12:13:31.468Z,76
2022-12-03T12:14:31.833Z,75
2022-12-03T12:15:31.449Z,75
2022-12-03T12:16:31.480Z,76
2022-12-03T12:17:31.443Z,76
2022-12-03T12:18:31.399Z,76
2022-12-03T12:19:31.441Z,76
2022-12-03T12:20:31.427Z,76
2022-12-03T12:21:31.438Z,76
2022-12-03T12:22:31.443Z,76
2022-12-03T12:23:31.425Z,76
2022-12-03T12:24:31.434Z,76
2022-12-03T12:25:31.435Z,76
2022-12-03T12:26:31.419Z,76
2022-12-03T12:27:31.415Z,76
2022-12-03T12:28:31.429Z,76
2022-12-03T12:29:31.442Z,76
2022-12-03T12:30:31.447Z,76
2022-12-03T12:31:31.445Z,76
2022-12-03T12:32:31.528Z,76
2022-12-03T12:33:31.405Z,76
2022-12-03T12:34:31.388Z,76
2022-12-03T12:35:31.461Z,76
2022-12-03T12:36:31.397Z,75
2022-12-03T12:37:31.445Z,75
2022-12-03T12:38:31.411Z,75
2022-12-03T12:39:31.422Z,75
2022-12-03T12:40:31.502Z,75
2022-12-03T12:41:31.531Z,75
2022-12-03T12:42:31.417Z,75
2022-12-03T12:43:31.397Z,76
2022-12-03T12:44:31.423Z,75
2022-12-03T12:45:31.444Z,75
2022-12-03T12:46:47.320Z,76
2022-12-03T12:47:31.584Z,76
2022-12-03T12:48:31.441Z,76
2022-12-03T12:49:31.425Z,76
2022-12-03T12:50:31.405Z,76
2022-12-03T12:51:31.410Z,76
2022-12-03T12:52:31.486Z,76
2022-12-03T12:53:31.443Z,76
2022-12-03T12:54:31.438Z,76
2022-12-03T12:55:31.421Z,76
2022-12-03T12:56:31.428Z,76
2022-12-03T12:57:31.423Z,76
2022-12-03T12:58:31.405Z,76
2022-12-03T12:59:31.417Z,76
2022-12-03T13:00:31.485Z,76
2022-12-03T13:01:31.590Z,76
2022-12-03T13:02:31.459Z,76
2022-12-03T13:03:31.457Z,76
2022-12-03T13:04:31.417Z,76
2022-12-03T13:05:31.463Z,76
2022-12-03T13:06:31.426Z,76
2022-12-03T13:07:31.474Z,77
2022-12-03T13:08:31.449Z,76
2022-12-03T13:09:31.407Z,77
2022-12-03T13:10:31.467Z,77
2022-12-03T13:11:31.436Z,77
2022-12-03T13:12:31.406Z,77
2022-12-03T13:13:31.411Z,77
2022-12-03T13:14:31.403Z,77
2022-12-03T13:15:31.437Z,77
2022-12-03T13:16:31.500Z,77
2022-12-03T13:17:31.417Z,77
2022-12-03T13:18:31.391Z,77
2022-12-03T13:19:31.405Z,77
2022-12-03T13:20:31.408Z,77
2022-12-03T13:21:31.414Z,77
2022-12-03T13:22:31.374Z,77
2022-12-03T13:23:31.441Z,77
2022-12-03T13:24:31.424Z,77
2022-12-03T13:25:57.289Z,77
2022-12-03T13:26:38.261Z,77
2022-12-03T13:27:31.471Z,77
2022-12-03T13:28:31.428Z,76
2022-12-03T13:29:31.427Z,76
2022-12-03T13:30:31.402Z,77
2022-12-03T13:31:31.462Z,77
2022-12-03T13:32:31.481Z,77
2022-12-03T13:33:31.421Z,76
2022-12-03T13:34:31.396Z,76
2022-12-03T13:35:31.630Z,76
2022-12-03T13:36:31.565Z,76
2022-12-03T13:37:31.397Z,75
2022-12-03T13:38:32.425Z,76
2022-12-03T13:39:32.439Z,76
2022-12-03T13:40:36.450Z,76
2022-12-03T13:41:40.457Z,76
2022-12-03T13:42:44.424Z,75
2022-12-03T13:43:48.507Z,75
2022-12-03T13:44:52.453Z,76
2022-12-03T13:45:56.529Z,76
2022-12-03T13:47:00.448Z,76
2022-12-03T13:48:04.448Z,76
2022-12-03T13:49:08.424Z,76
2022-12-03T13:50:12.472Z,76
2022-12-03T13:51:16.410Z,75
2022-12-03T13:52:20.432Z,75
2022-12-03T13:53:24.435Z,75
2022-12-03T13:54:28.438Z,75
2022-12-03T13:55:31.396Z,75
2022-12-03T13:56:31.420Z,75
2022-12-03T13:57:31.406Z,75
2022-12-03T13:58:31.405Z,75
2022-12-03T13:59:31.387Z,75
2022-12-03T14:00:31.429Z,76
2022-12-03T14:01:31.519Z,75
2022-12-03T14:02:31.634Z,75
2022-12-03T14:03:31.381Z,75
2022-12-03T14:04:31.393Z,75
2022-12-03T14:05:31.440Z,76
2022-12-03T14:06:31.399Z,76
2022-12-03T14:07:31.418Z,76
2022-12-03T14:08:31.415Z,76
2022-12-03T14:09:31.392Z,76
2022-12-03T14:10:31.396Z,76
2022-12-03T14:11:31.407Z,76
2022-12-03T14:12:31.449Z,76
2022-12-03T14:13:31.400Z,76
2022-12-03T14:14:31.408Z,76
2022-12-03T14:15:31.470Z,76
2022-12-03T14:16:31.556Z,76
2022-12-03T14:17:31.370Z,76